Avoca, Illinois
Current Conditions -  °F | °C
As of 5:15 AM on Friday 28 Nov 2014 (Local Time) from KPNT Reporting Station
Light Snow Light Snow  
Wind Chill: -12°   Ceiling: 4000
Heat Index: -7°   Visibility: 10mi
Dew Point: -10°   Wind: 7mph
Humidity: 81%   Direction: 130°SE
Pressure: 30.33"   Gusts: NA
Location:  40.7318°N, 88.524°W
Report Text: KPNT 281115Z AUTO 13006KT 10SM -SN SCT034 BKN040 OVC049 M07/M10 A3033 RMK AO2 T10701097
Loading
Personal Weather Stations






























Interactive Weather Map New forecast layout! Learn more

10-Day Weather Forecast

Advertisements
Track Severe Weather on mobile